Time,TemperatureF,DewpointF,PressureIn,WindDirection,WindDirectionDegrees,WindSpeedMPH,WindSpeedGustMPH,Humidity,HourlyPrecipIn,Conditions,Clouds,dailyrainin,SolarRadiationWatts/m^2,SoftwareType,DateUTC
2013-09-01 00:00:00,59.4,57.1,29.83,WNW,301,0.0,0.0,92,0.00,,,0.00,0,Wunderground v.1.15,2013-09-01 07:00:00,
2013-09-01 00:06:00,59.6,57.3,29.83,WNW,301,1.0,1.0,92,0.00,,,0.00,0,Wunderground v.1.15,2013-09-01 07:06:00,
2013-09-01 00:11:00,59.6,57.3,29.83,WNW,301,1.0,1.0,92,0.00,,,0.00,0,Wunderground v.1.15,2013-09-01 07:11:00,
2013-09-01 00:17:00,59.3,57.0,29.84,WNW,301,0.0,1.0,92,0.00,,,0.00,0,Wunderground v.1.15,2013-09-01 07:17:00,
2013-09-01 00:23:00,59.2,56.9,29.84,WNW,301,2.0,2.0,92,0.00,,,0.00,0,Wunderground v.1.15,2013-09-01 07:23:00,
2013-09-01 00:29:00,59.0,56.7,29.85,WNW,301,0.0,2.0,92,0.00,,,0.00,0,Wunderground v.1.15,2013-09-01 07:29:00,
2013-09-01 00:34:00,58.7,56.4,29.85,WNW,301,0.0,2.0,92,0.00,,,0.00,0,Wunderground v.1.15,2013-09-01 07:34:00,
2013-09-01 00:40:00,58.7,56.4,29.85,WNW,301,0.0,1.0,92,0.00,,,0.00,0,Wunderground v.1.15,2013-09-01 07:40:00,
2013-09-01 00:46:00,59.0,56.7,29.85,WNW,301,0.0,1.0,92,0.00,,,0.00,0,Wunderground v.1.15,2013-09-01 07:46:00,
2013-09-01 00:52:00,58.9,56.6,29.85,WNW,301,0.0,0.0,92,0.00,,,0.00,0,Wunderground v.1.15,2013-09-01 07:52:00,
2013-09-01 00:58:00,58.3,56.0,29.84,WNW,301,0.0,0.0,92,0.00,,,0.00,0,Wunderground v.1.15,2013-09-01 07:58:00,
2013-09-01 01:04:00,58.1,55.8,29.84,WNW,301,1.0,2.0,92,0.00,,,0.00,0,Wunderground v.1.15,2013-09-01 08:04:00,
2013-09-01 01:10:00,58.0,55.7,29.84,WNW,301,0.0,0.0,92,0.00,,,0.00,0,Wunderground v.1.15,2013-09-01 08:10:00,
2013-09-01 01:15:00,58.0,55.7,29.84,WNW,301,0.0,0.0,92,0.00,,,0.00,0,Wunderground v.1.15,2013-09-01 08:15:00,
2013-09-01 01:21:00,58.1,55.8,29.85,WNW,301,0.0,0.0,92,0.00,,,0.00,0,Wunderground v.1.15,2013-09-01 08:21:00,
2013-09-01 01:27:00,57.8,55.5,29.85,WNW,301,0.0,0.0,92,0.00,,,0.00,0,Wunderground v.1.15,2013-09-01 08:27:00,
2013-09-01 01:33:00,57.6,55.3,29.85,WNW,301,0.0,0.0,92,0.00,,,0.00,0,Wunderground v.1.15,2013-09-01 08:33:00,
2013-09-01 01:38:00,57.3,55.0,29.85,WNW,301,0.0,0.0,92,0.00,,,0.00,0,Wunderground v.1.15,2013-09-01 08:38:00,
2013-09-01 01:44:00,57.2,54.9,29.85,WNW,301,0.0,0.0,92,0.00,,,0.00,0,Wunderground v.1.15,2013-09-01 08:44:00,
2013-09-01 01:50:00,57.1,54.8,29.85,WNW,301,0.0,0.0,92,0.00,,,0.00,0,Wunderground v.1.15,2013-09-01 08:50:00,
2013-09-01 01:56:00,57.0,54.7,29.85,WNW,301,0.0,0.0,92,0.00,,,0.00,0,Wunderground v.1.15,2013-09-01 08:56:00,
2013-09-01 02:01:00,57.0,54.7,29.85,WNW,301,0.0,0.0,92,0.00,,,0.00,0,Wunderground v.1.15,2013-09-01 09:01:00,
2013-09-01 02:06:00,56.8,54.5,29.85,WNW,301,0.0,1.0,92,0.00,,,0.00,0,Wunderground v.1.15,2013-09-01 09:06:00,
2013-09-01 02:11:00,56.3,54.0,29.85,WNW,301,0.0,0.0,92,0.00,,,0.00,0,Wunderground v.1.15,2013-09-01 09:11:00,
2013-09-01 02:16:00,56.5,53.9,29.85,WNW,301,0.0,0.0,91,0.00,,,0.00,0,Wunderground v.1.15,2013-09-01 09:16:00,
2013-09-01 02:21:00,56.8,54.5,29.85,WNW,301,0.0,0.0,92,0.00,,,0.00,0,Wunderground v.1.15,2013-09-01 09:21:00,
2013-09-01 02:26:00,56.8,54.5,29.85,WNW,301,0.0,0.0,92,0.00,,,0.00,0,Wunderground v.1.15,2013-09-01 09:26:00,
2013-09-01 02:31:00,56.9,54.6,29.85,WNW,301,1.0,1.0,92,0.00,,,0.00,0,Wunderground v.1.15,2013-09-01 09:31:00,
2013-09-01 02:36:00,56.9,54.3,29.85,WNW,301,0.0,2.0,91,0.00,,,0.00,0,Wunderground v.1.15,2013-09-01 09:36:00,
2013-09-01 02:41:00,56.6,54.3,29.85,WNW,301,0.0,0.0,92,0.00,,,0.00,0,Wunderground v.1.15,2013-09-01 09:41:00,
2013-09-01 02:46:00,56.0,53.7,29.85,WNW,301,0.0,0.0,92,0.00,,,0.00,0,Wunderground v.1.15,2013-09-01 09:46:00,
2013-09-01 02:51:00,55.6,53.3,29.85,WNW,301,0.0,0.0,92,0.00,,,0.00,0,Wunderground v.1.15,2013-09-01 09:51:00,
2013-09-01 02:56:00,55.4,53.1,29.85,WNW,301,0.0,0.0,92,0.00,,,0.00,0,Wunderground v.1.15,2013-09-01 09:56:00,
2013-09-01 03:01:00,55.0,52.7,29.85,WNW,301,0.0,0.0,92,0.00,,,0.00,0,Wunderground v.1.15,2013-09-01 10:01:00,
2013-09-01 03:06:00,55.2,52.6,29.85,WNW,301,0.0,0.0,91,0.00,,,0.00,0,Wunderground v.1.15,2013-09-01 10:06:00,
2013-09-01 03:11:00,55.5,52.9,29.85,WNW,301,0.0,0.0,91,0.00,,,0.00,0,Wunderground v.1.15,2013-09-01 10:11:00,
2013-09-01 03:16:00,55.5,52.9,29.85,WNW,301,0.0,0.0,91,0.00,,,0.00,0,Wunderground v.1.15,2013-09-01 10:16:00,
2013-09-01 03:21:00,55.3,52.7,29.85,WNW,301,0.0,0.0,91,0.00,,,0.00,0,Wunderground v.1.15,2013-09-01 10:21:00,
2013-09-01 03:26:00,55.1,52.5,29.85,WNW,301,0.0,0.0,91,0.00,,,0.00,0,Wunderground v.1.15,2013-09-01 10:26:00,
2013-09-01 03:31:00,55.1,52.5,29.85,WNW,301,0.0,0.0,91,0.00,,,0.00,0,Wunderground v.1.15,2013-09-01 10:31:00,
2013-09-01 03:36:00,55.3,52.4,29.85,WNW,301,0.0,0.0,90,0.00,,,0.00,0,Wunderground v.1.15,2013-09-01 10:36:00,
2013-09-01 03:41:00,55.3,52.4,29.85,WNW,301,0.0,0.0,90,0.00,,,0.00,0,Wunderground v.1.15,2013-09-01 10:41:00,
2013-09-01 03:46:00,55.2,52.3,29.85,WNW,301,0.0,0.0,90,0.00,,,0.00,0,Wunderground v.1.15,2013-09-01 10:46:00,
2013-09-01 03:51:00,54.9,52.0,29.85,WNW,301,0.0,1.0,90,0.00,,,0.00,0,Wunderground v.1.15,2013-09-01 10:51:00,
2013-09-01 03:56:00,55.1,51.9,29.85,WNW,301,0.0,2.0,89,0.00,,,0.00,0,Wunderground v.1.15,2013-09-01 10:56:00,
2013-09-01 04:01:00,55.3,52.1,29.86,WNW,301,0.0,0.0,89,0.00,,,0.00,0,Wunderground v.1.15,2013-09-01 11:01:00,
2013-09-01 04:06:00,55.3,52.1,29.86,WNW,301,0.0,0.0,89,0.00,,,0.00,0,Wunderground v.1.15,2013-09-01 11:06:00,
2013-09-01 04:11:00,55.2,52.0,29.86,WNW,301,0.0,0.0,89,0.00,,,0.00,0,Wunderground v.1.15,2013-09-01 11:11:00,
2013-09-01 04:16:00,54.9,51.7,29.85,WNW,301,0.0,0.0,89,0.00,,,0.00,0,Wunderground v.1.15,2013-09-01 11:16:00,
2013-09-01 04:21:00,54.9,51.7,29.86,WNW,301,0.0,0.0,89,0.00,,,0.00,0,Wunderground v.1.15,2013-09-01 11:21:00,
2013-09-01 04:26:00,54.4,51.2,29.86,WNW,301,0.0,0.0,89,0.00,,,0.00,0,Wunderground v.1.15,2013-09-01 11:26:00,
2013-09-01 04:31:00,53.5,50.6,29.86,WNW,301,2.0,2.0,90,0.00,,,0.00,0,Wunderground v.1.15,2013-09-01 11:31:00,
2013-09-01 04:36:00,53.6,50.4,29.86,WNW,301,0.0,2.0,89,0.00,,,0.00,0,Wunderground v.1.15,2013-09-01 11:36:00,
2013-09-01 04:41:00,53.8,50.6,29.86,WNW,301,1.0,1.0,89,0.00,,,0.00,0,Wunderground v.1.15,2013-09-01 11:41:00,
2013-09-01 04:46:00,53.9,50.4,29.86,WNW,301,1.0,2.0,88,0.00,,,0.00,0,Wunderground v.1.15,2013-09-01 11:46:00,
2013-09-01 04:51:00,53.6,50.1,29.86,WNW,301,0.0,1.0,88,0.00,,,0.00,0,Wunderground v.1.15,2013-09-01 11:51:00,
2013-09-01 04:56:00,53.7,50.2,29.86,WNW,301,0.0,1.0,88,0.00,,,0.00,0,Wunderground v.1.15,2013-09-01 11:56:00,
2013-09-01 05:01:00,53.3,50.1,29.86,WNW,301,0.0,0.0,89,0.00,,,0.00,0,Wunderground v.1.15,2013-09-01 12:01:00,
2013-09-01 05:06:00,53.4,49.9,29.86,WNW,301,0.0,0.0,88,0.00,,,0.00,0,Wunderground v.1.15,2013-09-01 12:06:00,
2013-09-01 05:11:00,53.5,50.0,29.86,WNW,301,0.0,0.0,88,0.00,,,0.00,0,Wunderground v.1.15,2013-09-01 12:11:00,
2013-09-01 05:16:00,53.3,49.8,29.86,WNW,301,0.0,0.0,88,0.00,,,0.00,0,Wunderground v.1.15,2013-09-01 12:16:00,
2013-09-01 05:21:00,53.5,50.0,29.86,WNW,301,0.0,1.0,88,0.00,,,0.00,0,Wunderground v.1.15,2013-09-01 12:21:00,
2013-09-01 05:26:00,53.7,50.2,29.87,WNW,301,0.0,1.0,88,0.00,,,0.00,0,Wunderground v.1.15,2013-09-01 12:26:00,
2013-09-01 05:31:00,53.5,50.0,29.86,WNW,301,0.0,0.0,88,0.00,,,0.00,0,Wunderground v.1.15,2013-09-01 12:31:00,
2013-09-01 05:36:00,53.4,49.9,29.87,WNW,301,0.0,0.0,88,0.00,,,0.00,0,Wunderground v.1.15,2013-09-01 12:36:00,
2013-09-01 05:41:00,53.7,50.2,29.87,WNW,301,0.0,1.0,88,0.00,,,0.00,0,Wunderground v.1.15,2013-09-01 12:41:00,
2013-09-01 05:46:00,53.8,50.3,29.87,WNW,301,0.0,1.0,88,0.00,,,0.00,0,Wunderground v.1.15,2013-09-01 12:46:00,
2013-09-01 05:55:00,53.2,49.7,29.87,WNW,301,0.0,0.0,88,0.00,,,0.00,0,Wunderground v.1.15,2013-09-01 12:55:00,
2013-09-01 06:00:00,53.4,49.9,29.87,WNW,301,0.0,0.0,88,0.00,,,0.00,0,Wunderground v.1.15,2013-09-01 13:00:00,
2013-09-01 06:05:00,53.5,50.0,29.87,WNW,301,0.0,0.0,88,0.00,,,0.00,0,Wunderground v.1.15,2013-09-01 13:05:00,
2013-09-01 06:10:00,53.6,50.1,29.87,WNW,301,1.0,1.0,88,0.00,,,0.00,0,Wunderground v.1.15,2013-09-01 13:10:00,
2013-09-01 06:15:00,54.0,50.5,29.87,WNW,301,0.0,1.0,88,0.00,,,0.00,0,Wunderground v.1.15,2013-09-01 13:15:00,
2013-09-01 06:20:00,54.1,50.6,29.87,WNW,301,0.0,0.0,88,0.00,,,0.00,0,Wunderground v.1.15,2013-09-01 13:20:00,
2013-09-01 06:25:00,53.8,50.3,29.87,WNW,301,1.0,2.0,88,0.00,,,0.00,0,Wunderground v.1.15,2013-09-01 13:25:00,
2013-09-01 06:30:00,53.6,50.1,29.87,WNW,301,0.0,1.0,88,0.00,,,0.00,0,Wunderground v.1.15,2013-09-01 13:30:00,
2013-09-01 06:35:00,53.6,50.1,29.87,WNW,301,0.0,1.0,88,0.00,,,0.00,0,Wunderground v.1.15,2013-09-01 13:35:00,
2013-09-01 06:40:00,53.7,50.2,29.87,WNW,301,0.0,0.0,88,0.00,,,0.00,5,Wunderground v.1.15,2013-09-01 13:40:00,
2013-09-01 06:45:00,53.7,50.2,29.87,WNW,301,0.0,0.0,88,0.00,,,0.00,9,Wunderground v.1.15,2013-09-01 13:45:00,
2013-09-01 06:50:00,54.0,50.5,29.88,WNW,301,0.0,0.0,88,0.00,,,0.00,9,Wunderground v.1.15,2013-09-01 13:50:00,
2013-09-01 06:55:00,54.4,51.2,29.88,WNW,301,0.0,0.0,89,0.00,,,0.00,11,Wunderground v.1.15,2013-09-01 13:55:00,
2013-09-01 07:00:00,54.4,51.2,29.88,WNW,301,0.0,0.0,89,0.00,,,0.00,12,Wunderground v.1.15,2013-09-01 14:00:00,
2013-09-01 07:05:00,54.5,51.3,29.87,WNW,301,0.0,0.0,89,0.00,,,0.00,16,Wunderground v.1.15,2013-09-01 14:05:00,
2013-09-01 07:10:00,54.6,51.1,29.87,WNW,301,0.0,0.0,88,0.00,,,0.00,21,Wunderground v.1.15,2013-09-01 14:10:00,
2013-09-01 07:15:00,54.7,51.2,29.88,WNW,301,0.0,1.0,88,0.00,,,0.00,25,Wunderground v.1.15,2013-09-01 14:15:00,
2013-09-01 07:20:00,54.9,51.4,29.88,WNW,301,0.0,0.0,88,0.00,,,0.00,28,Wunderground v.1.15,2013-09-01 14:20:00,
2013-09-01 07:25:00,55.2,52.0,29.88,WNW,301,0.0,0.0,89,0.00,,,0.00,28,Wunderground v.1.15,2013-09-01 14:25:00,
2013-09-01 07:30:00,55.5,52.3,29.88,WNW,301,0.0,0.0,89,0.00,,,0.00,28,Wunderground v.1.15,2013-09-01 14:30:00,
2013-09-01 07:35:00,55.7,52.2,29.88,WNW,301,0.0,0.0,88,0.00,,,0.00,33,Wunderground v.1.15,2013-09-01 14:35:00,
2013-09-01 07:40:00,56.0,52.8,29.88,WNW,301,0.0,0.0,89,0.00,,,0.00,49,Wunderground v.1.15,2013-09-01 14:40:00,
2013-09-01 07:45:00,56.2,53.0,29.88,WNW,301,0.0,0.0,89,0.00,,,0.00,58,Wunderground v.1.15,2013-09-01 14:45:00,
2013-09-01 07:50:00,56.4,52.9,29.88,WNW,301,0.0,0.0,88,0.00,,,0.00,54,Wunderground v.1.15,2013-09-01 14:50:00,
2013-09-01 07:55:00,56.7,53.5,29.88,WNW,301,0.0,0.0,89,0.00,,,0.00,76,Wunderground v.1.15,2013-09-01 14:55:00,
2013-09-01 08:00:00,57.0,53.8,29.87,WNW,301,0.0,0.0,89,0.00,,,0.00,76,Wunderground v.1.15,2013-09-01 15:00:00,
2013-09-01 08:05:00,57.3,53.8,29.88,WNW,301,0.0,0.0,88,0.00,,,0.00,84,Wunderground v.1.15,2013-09-01 15:05:00,
2013-09-01 08:10:00,57.4,53.9,29.87,WNW,301,0.0,0.0,88,0.00,,,0.00,76,Wunderground v.1.15,2013-09-01 15:10:00,
2013-09-01 08:15:00,57.5,54.3,29.87,WNW,301,0.0,0.0,89,0.00,,,0.00,76,Wunderground v.1.15,2013-09-01 15:15:00,
2013-09-01 08:20:00,57.9,54.4,29.87,WNW,301,0.0,0.0,88,0.00,,,0.00,86,Wunderground v.1.15,2013-09-01 15:20:00,
2013-09-01 08:25:00,58.2,55.0,29.87,WNW,301,0.0,1.0,89,0.00,,,0.00,69,Wunderground v.1.15,2013-09-01 15:25:00,
2013-09-01 08:30:00,58.2,55.0,29.87,WNW,301,0.0,0.0,89,0.00,,,0.00,102,Wunderground v.1.15,2013-09-01 15:30:00,
2013-09-01 08:35:00,58.2,55.0,29.87,WNW,301,0.0,2.0,89,0.00,,,0.00,95,Wunderground v.1.15,2013-09-01 15:35:00,
2013-09-01 08:40:00,58.3,54.8,29.87,WNW,301,1.0,1.0,88,0.00,,,0.00,91,Wunderground v.1.15,2013-09-01 15:40:00,
2013-09-01 08:45:00,58.1,54.9,29.87,WNW,301,0.0,4.0,89,0.00,,,0.00,111,Wunderground v.1.15,2013-09-01 15:45:00,
2013-09-01 08:50:00,58.2,54.7,29.87,WNW,301,0.0,1.0,88,0.00,,,0.00,109,Wunderground v.1.15,2013-09-01 15:50:00,
2013-09-01 08:56:00,58.4,54.9,29.87,WNW,301,0.0,1.0,88,0.00,,,0.00,90,Wunderground v.1.15,2013-09-01 15:56:00,
2013-09-01 09:01:00,58.5,55.0,29.87,WNW,301,0.0,0.0,88,0.00,,,0.00,125,Wunderground v.1.15,2013-09-01 16:01:00,
2013-09-01 09:06:00,58.6,55.1,29.87,WNW,301,0.0,2.0,88,0.00,,,0.00,142,Wunderground v.1.15,2013-09-01 16:06:00,
2013-09-01 09:11:00,58.7,55.2,29.87,WNW,301,0.0,1.0,88,0.00,,,0.00,128,Wunderground v.1.15,2013-09-01 16:11:00,
2013-09-01 09:16:00,58.9,55.4,29.87,WNW,301,0.0,1.0,88,0.00,,,0.00,139,Wunderground v.1.15,2013-09-01 16:16:00,
2013-09-01 09:21:00,59.2,55.6,29.87,WNW,301,0.0,1.0,88,0.00,,,0.00,156,Wunderground v.1.15,2013-09-01 16:21:00,
2013-09-01 09:26:00,59.1,55.5,29.86,WNW,301,0.0,1.0,88,0.00,,,0.00,174,Wunderground v.1.15,2013-09-01 16:26:00,
2013-09-01 09:31:00,59.3,55.7,29.86,WNW,301,0.0,1.0,88,0.00,,,0.00,188,Wunderground v.1.15,2013-09-01 16:31:00,
2013-09-01 09:36:00,59.5,55.9,29.86,WNW,301,0.0,1.0,88,0.00,,,0.00,193,Wunderground v.1.15,2013-09-01 16:36:00,
2013-09-01 09:41:00,59.8,56.2,29.86,WNW,301,0.0,1.0,88,0.00,,,0.00,223,Wunderground v.1.15,2013-09-01 16:41:00,
2013-09-01 09:46:00,59.9,56.3,29.86,WNW,301,0.0,1.0,88,0.00,,,0.00,199,Wunderground v.1.15,2013-09-01 16:46:00,
2013-09-01 09:51:00,60.0,56.4,29.86,WNW,301,1.0,1.0,88,0.00,,,0.00,192,Wunderground v.1.15,2013-09-01 16:51:00,
2013-09-01 09:56:00,60.2,56.6,29.86,WNW,301,0.0,4.0,88,0.00,,,0.00,214,Wunderground v.1.15,2013-09-01 16:56:00,
2013-09-01 10:01:00,60.7,57.1,29.86,West,271,0.0,2.0,88,0.00,,,0.00,230,Wunderground v.1.15,2013-09-01 17:01:00,
2013-09-01 10:06:00,61.3,58.0,29.86,South,186,0.0,5.0,89,0.00,,,0.00,274,Wunderground v.1.15,2013-09-01 17:06:00,
2013-09-01 10:11:00,61.8,58.8,29.86,South,186,1.0,1.0,90,0.00,,,0.00,287,Wunderground v.1.15,2013-09-01 17:11:00,
2013-09-01 10:16:00,62.7,60.3,29.86,South,186,3.0,4.0,92,0.00,,,0.00,561,Wunderground v.1.15,2013-09-01 17:16:00,
2013-09-01 10:21:00,63.3,60.9,29.85,South,186,2.0,2.0,92,0.00,,,0.00,524,Wunderground v.1.15,2013-09-01 17:21:00,
2013-09-01 10:26:00,63.9,61.5,29.86,South,186,1.0,3.0,92,0.00,,,0.00,524,Wunderground v.1.15,2013-09-01 17:26:00,
2013-09-01 10:31:00,64.6,61.6,29.86,South,186,2.0,2.0,90,0.00,,,0.00,533,Wunderground v.1.15,2013-09-01 17:31:00,
2013-09-01 10:36:00,65.4,61.8,29.85,South,186,0.0,3.0,88,0.00,,,0.00,545,Wunderground v.1.15,2013-09-01 17:36:00,
2013-09-01 10:41:00,66.3,61.3,29.85,South,186,2.0,3.0,84,0.00,,,0.00,554,Wunderground v.1.15,2013-09-01 17:41:00,
2013-09-01 10:46:00,66.8,61.5,29.85,South,186,1.0,3.0,83,0.00,,,0.00,571,Wunderground v.1.15,2013-09-01 17:46:00,
2013-09-01 10:51:00,67.5,61.5,29.85,South,186,0.0,2.0,81,0.00,,,0.00,578,Wunderground v.1.15,2013-09-01 17:51:00,
2013-09-01 10:56:00,67.9,61.5,29.85,ENE,73,1.0,4.0,80,0.00,,,0.00,587,Wunderground v.1.15,2013-09-01 17:56:00,
2013-09-01 11:01:00,68.3,61.5,29.85,SW,226,1.0,6.0,79,0.00,,,0.00,596,Wunderground v.1.15,2013-09-01 18:01:00,
2013-09-01 11:06:00,68.3,61.9,29.85,SSW,205,2.0,7.0,80,0.00,,,0.00,605,Wunderground v.1.15,2013-09-01 18:06:00,
2013-09-01 11:11:00,68.9,62.1,29.85,SW,236,3.0,5.0,79,0.00,,,0.00,613,Wunderground v.1.15,2013-09-01 18:11:00,
2013-09-01 11:16:00,68.9,62.1,29.85,South,188,0.0,5.0,79,0.00,,,0.00,622,Wunderground v.1.15,2013-09-01 18:16:00,
2013-09-01 11:21:00,69.5,62.7,29.84,SSW,208,8.0,10.0,79,0.00,,,0.00,631,Wunderground v.1.15,2013-09-01 18:21:00,
2013-09-01 11:26:00,69.7,62.5,29.84,SSW,200,5.0,10.0,78,0.00,,,0.00,638,Wunderground v.1.15,2013-09-01 18:26:00,
2013-09-01 11:31:00,69.8,63.0,29.84,SW,215,9.0,9.0,79,0.00,,,0.00,661,Wunderground v.1.15,2013-09-01 18:31:00,
2013-09-01 11:36:00,70.8,63.2,29.84,SSW,192,5.0,9.0,77,0.00,,,0.00,659,Wunderground v.1.15,2013-09-01 18:36:00,
2013-09-01 11:41:00,71.2,62.9,29.84,SW,217,8.0,10.0,75,0.00,,,0.00,664,Wunderground v.1.15,2013-09-01 18:41:00,
2013-09-01 11:46:00,70.6,62.7,29.84,ENE,71,2.0,10.0,76,0.00,,,0.00,671,Wunderground v.1.15,2013-09-01 18:46:00,
2013-09-01 11:55:00,72.7,63.5,29.84,South,171,5.0,5.0,73,0.00,,,0.00,680,Wunderground v.1.15,2013-09-01 18:55:00,
2013-09-01 12:00:00,73.2,63.2,29.83,SW,226,5.0,6.0,71,0.00,,,0.00,687,Wunderground v.1.15,2013-09-01 19:00:00,
2013-09-01 12:05:00,73.2,63.2,29.83,SSW,196,5.0,8.0,71,0.00,,,0.00,700,Wunderground v.1.15,2013-09-01 19:05:00,
2013-09-01 12:10:00,74.0,63.2,29.83,SSE,167,4.0,8.0,69,0.00,,,0.00,701,Wunderground v.1.15,2013-09-01 19:10:00,
2013-09-01 12:15:00,74.5,62.8,29.83,SSW,196,8.0,11.0,67,0.00,,,0.00,703,Wunderground v.1.15,2013-09-01 19:15:00,
2013-09-01 12:20:00,74.6,62.5,29.83,SE,141,8.0,10.0,66,0.00,,,0.00,710,Wunderground v.1.15,2013-09-01 19:20:00,
2013-09-01 12:25:00,74.7,62.6,29.83,SW,228,10.0,10.0,66,0.00,,,0.00,717,Wunderground v.1.15,2013-09-01 19:25:00,
2013-09-01 12:30:00,74.2,62.1,29.83,SW,225,3.0,6.0,66,0.00,,,0.00,722,Wunderground v.1.15,2013-09-01 19:30:00,
2013-09-01 12:35:00,75.3,63.6,29.83,SSW,213,7.0,11.0,67,0.00,,,0.00,726,Wunderground v.1.15,2013-09-01 19:35:00,
2013-09-01 12:40:00,75.5,62.5,29.83,SW,217,9.0,12.0,64,0.00,,,0.00,722,Wunderground v.1.15,2013-09-01 19:40:00,
2013-09-01 12:45:00,75.4,62.4,29.82,SW,219,2.0,12.0,64,0.00,,,0.00,728,Wunderground v.1.15,2013-09-01 19:45:00,
2013-09-01 12:50:00,76.0,62.5,29.82,SW,215,7.0,9.0,63,0.00,,,0.00,728,Wunderground v.1.15,2013-09-01 19:50:00,
2013-09-01 12:55:00,76.0,62.5,29.82,SE,140,8.0,13.0,63,0.00,,,0.00,724,Wunderground v.1.15,2013-09-01 19:55:00,
2013-09-01 13:00:00,76.2,62.7,29.82,SW,229,10.0,12.0,63,0.00,,,0.00,737,Wunderground v.1.15,2013-09-01 20:00:00,
2013-09-01 13:05:00,76.6,63.1,29.82,SSE,147,8.0,13.0,63,0.00,,,0.00,735,Wunderground v.1.15,2013-09-01 20:05:00,
2013-09-01 13:10:00,77.3,63.7,29.82,SE,136,9.0,11.0,63,0.00,,,0.00,287,Wunderground v.1.15,2013-09-01 20:10:00,
2013-09-01 13:16:00,77.5,63.5,29.82,South,191,5.0,12.0,62,0.00,,,0.00,737,Wunderground v.1.15,2013-09-01 20:16:00,
2013-09-01 13:21:00,77.3,63.3,29.82,SW,223,6.0,9.0,62,0.00,,,0.00,737,Wunderground v.1.15,2013-09-01 20:21:00,
2013-09-01 13:26:00,77.3,63.3,29.81,SE,126,7.0,11.0,62,0.00,,,0.00,376,Wunderground v.1.15,2013-09-01 20:26:00,
2013-09-01 13:31:00,78.0,63.0,29.81,South,188,3.0,10.0,60,0.00,,,0.00,744,Wunderground v.1.15,2013-09-01 20:31:00,
2013-09-01 13:36:00,77.8,62.8,29.81,South,184,3.0,10.0,60,0.00,,,0.00,742,Wunderground v.1.15,2013-09-01 20:36:00,
2013-09-01 13:41:00,77.7,62.2,29.81,South,174,7.0,7.0,59,0.00,,,0.00,227,Wunderground v.1.15,2013-09-01 20:41:00,
2013-09-01 13:46:00,78.4,61.4,29.81,SE,140,7.0,13.0,56,0.00,,,0.00,729,Wunderground v.1.15,2013-09-01 20:46:00,
2013-09-01 13:51:00,78.3,61.3,29.81,South,178,10.0,10.0,56,0.00,,,0.00,733,Wunderground v.1.15,2013-09-01 20:51:00,
2013-09-01 13:56:00,78.6,61.1,29.81,SSE,161,7.0,10.0,55,0.00,,,0.00,552,Wunderground v.1.15,2013-09-01 20:56:00,
2013-09-01 14:01:00,78.3,62.3,29.80,South,177,7.0,9.0,58,0.00,,,0.00,561,Wunderground v.1.15,2013-09-01 21:01:00,
2013-09-01 14:06:00,78.9,61.4,29.80,South,175,10.0,12.0,55,0.00,,,0.00,722,Wunderground v.1.15,2013-09-01 21:06:00,
2013-09-01 14:11:00,79.2,62.7,29.81,SE,127,9.0,9.0,57,0.00,,,0.00,717,Wunderground v.1.15,2013-09-01 21:11:00,
2013-09-01 14:16:00,79.3,62.7,29.80,South,173,1.0,10.0,57,0.00,,,0.00,712,Wunderground v.1.15,2013-09-01 21:16:00,
2013-09-01 14:21:00,79.1,62.1,29.80,SSE,153,6.0,11.0,56,0.00,,,0.00,466,Wunderground v.1.15,2013-09-01 21:21:00,
2013-09-01 14:26:00,79.4,62.3,29.80,South,176,7.0,12.0,56,0.00,,,0.00,707,Wunderground v.1.15,2013-09-01 21:26:00,
2013-09-01 14:31:00,79.5,61.4,29.80,SW,221,2.0,6.0,54,0.00,,,0.00,701,Wunderground v.1.15,2013-09-01 21:31:00,
2013-09-01 14:36:00,80.3,62.1,29.80,SW,219,5.0,10.0,54,0.00,,,0.00,698,Wunderground v.1.15,2013-09-01 21:36:00,
2013-09-01 14:41:00,79.9,61.8,29.80,SW,236,7.0,10.0,54,0.00,,,0.00,693,Wunderground v.1.15,2013-09-01 21:41:00,
2013-09-01 14:46:00,80.2,62.0,29.80,SW,219,8.0,12.0,54,0.00,,,0.00,689,Wunderground v.1.15,2013-09-01 21:46:00,
2013-09-01 14:51:00,80.3,61.6,29.80,SW,223,5.0,12.0,53,0.00,,,0.00,682,Wunderground v.1.15,2013-09-01 21:51:00,
2013-09-01 14:56:00,80.1,61.4,29.79,South,190,8.0,12.0,53,0.00,,,0.00,677,Wunderground v.1.15,2013-09-01 21:56:00,
2013-09-01 15:02:00,80.2,61.0,29.79,SW,220,6.0,10.0,52,0.00,,,0.00,673,Wunderground v.1.15,2013-09-01 22:02:00,
2013-09-01 15:07:00,80.1,60.3,29.79,SSW,207,5.0,12.0,51,0.00,,,0.00,666,Wunderground v.1.15,2013-09-01 22:07:00,
2013-09-01 15:12:00,80.2,60.4,29.79,South,177,9.0,13.0,51,0.00,,,0.00,657,Wunderground v.1.15,2013-09-01 22:12:00,
2013-09-01 15:17:00,80.2,60.4,29.79,West,261,4.0,13.0,51,0.00,,,0.00,652,Wunderground v.1.15,2013-09-01 22:17:00,
2013-09-01 15:22:00,80.8,59.3,29.79,SSW,213,5.0,10.0,48,0.00,,,0.00,645,Wunderground v.1.15,2013-09-01 22:22:00,
2013-09-01 15:27:00,81.2,59.6,29.79,South,181,0.0,10.0,48,0.00,,,0.00,638,Wunderground v.1.15,2013-09-01 22:27:00,
2013-09-01 15:32:00,81.2,59.6,29.78,South,186,9.0,9.0,48,0.00,,,0.00,629,Wunderground v.1.15,2013-09-01 22:32:00,
2013-09-01 15:37:00,80.9,59.4,29.78,WSW,246,1.0,10.0,48,0.00,,,0.00,619,Wunderground v.1.15,2013-09-01 22:37:00,
2013-09-01 15:42:00,81.2,59.6,29.78,South,181,2.0,4.0,48,0.00,,,0.00,610,Wunderground v.1.15,2013-09-01 22:42:00,
2013-09-01 15:47:00,81.6,60.0,29.78,SSW,194,5.0,10.0,48,0.00,,,0.00,598,Wunderground v.1.15,2013-09-01 22:47:00,
2013-09-01 15:52:00,81.5,60.5,29.78,WSW,238,2.0,5.0,49,0.00,,,0.00,589,Wunderground v.1.15,2013-09-01 22:52:00,
2013-09-01 15:57:00,81.9,60.9,29.78,SW,216,0.0,5.0,49,0.00,,,0.00,578,Wunderground v.1.15,2013-09-01 22:57:00,
2013-09-01 16:02:00,82.1,61.6,29.78,West,273,6.0,9.0,50,0.00,,,0.00,566,Wunderground v.1.15,2013-09-01 23:02:00,
2013-09-01 16:07:00,81.7,61.8,29.78,WSW,254,5.0,9.0,51,0.00,,,0.00,559,Wunderground v.1.15,2013-09-01 23:07:00,
2013-09-01 16:12:00,81.3,61.4,29.78,West,271,1.0,10.0,51,0.00,,,0.00,548,Wunderground v.1.15,2013-09-01 23:12:00,
2013-09-01 16:17:00,81.1,61.3,29.78,West,270,1.0,10.0,51,0.00,,,0.00,536,Wunderground v.1.15,2013-09-01 23:17:00,
2013-09-01 16:22:00,81.0,61.2,29.78,WNW,288,2.0,5.0,51,0.00,,,0.00,524,Wunderground v.1.15,2013-09-01 23:22:00,
2013-09-01 16:27:00,81.4,61.5,29.78,SSW,209,5.0,13.0,51,0.00,,,0.00,515,Wunderground v.1.15,2013-09-01 23:27:00,
2013-09-01 16:32:00,81.1,61.3,29.77,South,182,1.0,5.0,51,0.00,,,0.00,503,Wunderground v.1.15,2013-09-01 23:32:00,
2013-09-01 16:37:00,81.6,61.2,29.77,WSW,252,7.0,8.0,50,0.00,,,0.00,490,Wunderground v.1.15,2013-09-01 23:37:00,
2013-09-01 16:42:00,81.5,61.1,29.78,WSW,253,6.0,11.0,50,0.00,,,0.00,476,Wunderground v.1.15,2013-09-01 23:42:00,
2013-09-01 16:47:00,80.7,60.9,29.77,WNW,301,9.0,15.0,51,0.00,,,0.00,466,Wunderground v.1.15,2013-09-01 23:47:00,
2013-09-01 16:52:00,80.3,60.5,29.77,WNW,296,6.0,8.0,51,0.00,,,0.00,454,Wunderground v.1.15,2013-09-01 23:52:00,
2013-09-01 16:57:00,80.6,60.8,29.77,SW,228,5.0,11.0,51,0.00,,,0.00,441,Wunderground v.1.15,2013-09-01 23:57:00,
2013-09-01 17:02:00,81.0,61.2,29.77,SW,221,2.0,7.0,51,0.00,,,0.00,427,Wunderground v.1.15,2013-09-02 00:02:00,
2013-09-01 17:07:00,81.3,61.4,29.77,SW,225,5.0,10.0,51,0.00,,,0.00,413,Wunderground v.1.15,2013-09-02 00:07:00,
2013-09-01 17:12:00,81.1,61.3,29.77,West,277,8.0,11.0,51,0.00,,,0.00,401,Wunderground v.1.15,2013-09-02 00:12:00,
2013-09-01 17:17:00,81.1,61.3,29.77,West,281,6.0,11.0,51,0.00,,,0.00,387,Wunderground v.1.15,2013-09-02 00:17:00,
2013-09-01 17:22:00,81.0,61.2,29.77,West,272,7.0,11.0,51,0.00,,,0.00,373,Wunderground v.1.15,2013-09-02 00:22:00,
2013-09-01 17:27:00,81.0,61.2,29.77,SW,226,5.0,11.0,51,0.00,,,0.00,359,Wunderground v.1.15,2013-09-02 00:27:00,
2013-09-01 17:32:00,81.1,61.3,29.77,SSW,204,3.0,8.0,51,0.00,,,0.00,346,Wunderground v.1.15,2013-09-02 00:32:00,
2013-09-01 17:37:00,81.2,61.4,29.77,West,269,4.0,8.0,51,0.00,,,0.00,332,Wunderground v.1.15,2013-09-02 00:37:00,
2013-09-01 17:42:00,81.4,61.0,29.77,West,267,6.0,8.0,50,0.00,,,0.00,320,Wunderground v.1.15,2013-09-02 00:42:00,
2013-09-01 17:47:00,81.0,60.6,29.77,WSW,248,5.0,9.0,50,0.00,,,0.00,304,Wunderground v.1.15,2013-09-02 00:47:00,
2013-09-01 17:56:00,80.6,60.8,29.77,WSW,242,10.0,10.0,51,0.00,,,0.00,281,Wunderground v.1.15,2013-09-02 00:56:00,
2013-09-01 18:01:00,80.2,59.9,29.77,WNW,291,5.0,7.0,50,0.00,,,0.00,267,Wunderground v.1.15,2013-09-02 01:01:00,
2013-09-01 18:06:00,80.1,60.3,29.77,WNW,301,6.0,10.0,51,0.00,,,0.00,253,Wunderground v.1.15,2013-09-02 01:06:00,
2013-09-01 18:11:00,80.2,60.4,29.77,WSW,257,6.0,11.0,51,0.00,,,0.00,239,Wunderground v.1.15,2013-09-02 01:11:00,
2013-09-01 18:16:00,80.0,60.2,29.77,West,277,6.0,11.0,51,0.00,,,0.00,227,Wunderground v.1.15,2013-09-02 01:16:00,
2013-09-01 18:21:00,79.4,59.7,29.77,West,265,4.0,11.0,51,0.00,,,0.00,211,Wunderground v.1.15,2013-09-02 01:21:00,
2013-09-01 18:26:00,79.0,59.9,29.78,West,269,5.0,11.0,52,0.00,,,0.00,197,Wunderground v.1.15,2013-09-02 01:26:00,
2013-09-01 18:31:00,78.8,59.7,29.78,West,273,7.0,12.0,52,0.00,,,0.00,181,Wunderground v.1.15,2013-09-02 01:31:00,
2013-09-01 18:36:00,78.4,59.3,29.78,West,275,8.0,12.0,52,0.00,,,0.00,167,Wunderground v.1.15,2013-09-02 01:36:00,
2013-09-01 18:41:00,78.2,59.1,29.78,West,268,5.0,12.0,52,0.00,,,0.00,153,Wunderground v.1.15,2013-09-02 01:41:00,
2013-09-01 18:46:00,77.8,59.3,29.79,West,269,5.0,14.0,53,0.00,,,0.00,139,Wunderground v.1.15,2013-09-02 01:46:00,
2013-09-01 18:51:00,77.5,59.0,29.78,West,272,6.0,8.0,53,0.00,,,0.00,127,Wunderground v.1.15,2013-09-02 01:51:00,
2013-09-01 18:56:00,77.1,59.2,29.78,West,270,7.0,14.0,54,0.00,,,0.00,113,Wunderground v.1.15,2013-09-02 01:56:00,
2013-09-01 19:01:00,76.6,58.7,29.79,West,263,10.0,11.0,54,0.00,,,0.00,100,Wunderground v.1.15,2013-09-02 02:01:00,
2013-09-01 19:06:00,76.3,59.4,29.79,WNW,284,6.0,11.0,56,0.00,,,0.00,88,Wunderground v.1.15,2013-09-02 02:06:00,
2013-09-01 19:11:00,76.2,59.9,29.79,West,275,4.0,8.0,57,0.00,,,0.00,76,Wunderground v.1.15,2013-09-02 02:11:00,
2013-09-01 19:16:00,75.8,60.4,29.79,WSW,238,6.0,10.0,59,0.00,,,0.00,60,Wunderground v.1.15,2013-09-02 02:16:00,
2013-09-01 19:21:00,75.2,58.9,29.80,West,280,7.0,8.0,57,0.00,,,0.00,16,Wunderground v.1.15,2013-09-02 02:21:00,
2013-09-01 19:26:00,74.5,58.8,29.80,West,271,4.0,11.0,58,0.00,,,0.00,14,Wunderground v.1.15,2013-09-02 02:26:00,
2013-09-01 19:31:00,74.0,58.3,29.80,West,281,2.0,6.0,58,0.00,,,0.00,9,Wunderground v.1.15,2013-09-02 02:31:00,
2013-09-01 19:36:00,73.8,58.1,29.80,WNW,283,2.0,6.0,58,0.00,,,0.00,9,Wunderground v.1.15,2013-09-02 02:36:00,
2013-09-01 19:41:00,73.5,58.3,29.80,WNW,283,1.0,2.0,59,0.00,,,0.00,7,Wunderground v.1.15,2013-09-02 02:41:00,
2013-09-01 19:46:00,73.3,58.1,29.80,WNW,283,1.0,4.0,59,0.00,,,0.00,0,Wunderground v.1.15,2013-09-02 02:46:00,
2013-09-01 19:51:00,72.9,57.7,29.81,West,281,1.0,2.0,59,0.00,,,0.00,0,Wunderground v.1.15,2013-09-02 02:51:00,
2013-09-01 19:56:00,72.6,57.9,29.81,West,281,1.0,2.0,60,0.00,,,0.00,0,Wunderground v.1.15,2013-09-02 02:56:00,
2013-09-01 20:01:00,72.4,57.7,29.81,West,281,2.0,2.0,60,0.00,,,0.00,0,Wunderground v.1.15,2013-09-02 03:01:00,
2013-09-01 20:06:00,72.2,58.0,29.81,West,281,0.0,2.0,61,0.00,,,0.00,0,Wunderground v.1.15,2013-09-02 03:06:00,
2013-09-01 20:11:00,72.0,57.8,29.81,West,281,0.0,1.0,61,0.00,,,0.00,0,Wunderground v.1.15,2013-09-02 03:11:00,
2013-09-01 20:16:00,71.2,58.0,29.81,West,281,0.0,1.0,63,0.00,,,0.00,0,Wunderground v.1.15,2013-09-02 03:16:00,
2013-09-01 20:21:00,69.8,57.9,29.81,West,281,1.0,1.0,66,0.00,,,0.00,0,Wunderground v.1.15,2013-09-02 03:21:00,
2013-09-01 20:26:00,69.2,57.8,29.81,West,281,1.0,2.0,67,0.00,,,0.00,0,Wunderground v.1.15,2013-09-02 03:26:00,
2013-09-01 20:31:00,68.9,57.9,29.81,NNW,344,4.0,4.0,68,0.00,,,0.00,0,Wunderground v.1.15,2013-09-02 03:31:00,
2013-09-01 20:36:00,68.3,57.7,29.81,NNW,344,2.0,4.0,69,0.00,,,0.00,0,Wunderground v.1.15,2013-09-02 03:36:00,
2013-09-01 20:41:00,68.5,57.9,29.81,NNW,345,1.0,5.0,69,0.00,,,0.00,0,Wunderground v.1.15,2013-09-02 03:41:00,
2013-09-01 20:46:00,68.9,58.3,29.81,NNW,331,4.0,5.0,69,0.00,,,0.00,0,Wunderground v.1.15,2013-09-02 03:46:00,
2013-09-01 20:51:00,69.1,58.5,29.81,NNW,331,0.0,2.0,69,0.00,,,0.00,0,Wunderground v.1.15,2013-09-02 03:51:00,
2013-09-01 20:56:00,68.9,58.7,29.81,NNW,331,0.0,2.0,70,0.00,,,0.00,0,Wunderground v.1.15,2013-09-02 03:56:00,
2013-09-01 21:01:00,67.6,57.9,29.81,NNW,331,0.0,0.0,71,0.00,,,0.00,0,Wunderground v.1.15,2013-09-02 04:01:00,
2013-09-01 21:02:00,67.4,58.1,29.81,NNW,331,0.0,0.0,72,0.00,,,0.00,0,Wunderground v.1.15,2013-09-02 04:02:00,
2013-09-01 21:07:00,67.0,58.4,29.81,NNW,331,0.0,1.0,74,0.00,,,0.00,0,Wunderground v.1.15,2013-09-02 04:07:00,
2013-09-01 21:12:00,66.9,58.3,29.82,NNW,331,0.0,1.0,74,0.00,,,0.00,0,Wunderground v.1.15,2013-09-02 04:12:00,
2013-09-01 21:17:00,66.8,58.2,29.82,NNW,331,0.0,1.0,74,0.00,,,0.00,0,Wunderground v.1.15,2013-09-02 04:17:00,
2013-09-01 21:22:00,66.7,58.1,29.82,NNW,331,0.0,2.0,74,0.00,,,0.00,0,Wunderground v.1.15,2013-09-02 04:22:00,
2013-09-01 21:27:00,66.4,58.2,29.82,NNW,331,0.0,2.0,75,0.00,,,0.00,0,Wunderground v.1.15,2013-09-02 04:27:00,
2013-09-01 21:32:00,66.4,58.2,29.82,NNW,331,0.0,1.0,75,0.00,,,0.00,0,Wunderground v.1.15,2013-09-02 04:32:00,
2013-09-01 21:37:00,66.0,58.2,29.83,NNW,331,0.0,1.0,76,0.00,,,0.00,0,Wunderground v.1.15,2013-09-02 04:37:00,
2013-09-01 21:42:00,64.3,56.9,29.83,NNW,331,0.0,0.0,77,0.00,,,0.00,0,Wunderground v.1.15,2013-09-02 04:42:00,
2013-09-01 21:47:00,63.5,57.2,29.83,NNW,331,0.0,0.0,80,0.00,,,0.00,0,Wunderground v.1.15,2013-09-02 04:47:00,
2013-09-01 21:52:00,63.0,57.1,29.83,NNW,331,0.0,0.0,81,0.00,,,0.00,0,Wunderground v.1.15,2013-09-02 04:52:00,
2013-09-01 21:57:00,62.9,57.3,29.83,NNW,331,0.0,0.0,82,0.00,,,0.00,0,Wunderground v.1.15,2013-09-02 04:57:00,
2013-09-01 22:02:00,62.7,57.5,29.83,NNW,331,0.0,0.0,83,0.00,,,0.00,0,Wunderground v.1.15,2013-09-02 05:02:00,
2013-09-01 22:07:00,62.8,57.6,29.83,NNW,331,0.0,0.0,83,0.00,,,0.00,0,Wunderground v.1.15,2013-09-02 05:07:00,
2013-09-01 22:12:00,62.6,57.4,29.83,NNW,331,0.0,0.0,83,0.00,,,0.00,0,Wunderground v.1.15,2013-09-02 05:12:00,
2013-09-01 22:17:00,62.5,57.3,29.84,NNW,331,0.0,0.0,83,0.00,,,0.00,0,Wunderground v.1.15,2013-09-02 05:17:00,
2013-09-01 22:22:00,62.4,57.2,29.84,NNW,331,0.0,1.0,83,0.00,,,0.00,0,Wunderground v.1.15,2013-09-02 05:22:00,
2013-09-01 22:27:00,62.3,57.4,29.84,NNW,331,0.0,2.0,84,0.00,,,0.00,0,Wunderground v.1.15,2013-09-02 05:27:00,
2013-09-01 22:32:00,62.2,57.6,29.85,NNW,331,0.0,2.0,85,0.00,,,0.00,0,Wunderground v.1.15,2013-09-02 05:32:00,
2013-09-01 22:37:00,62.1,57.2,29.85,NNW,331,0.0,2.0,84,0.00,,,0.00,0,Wunderground v.1.15,2013-09-02 05:37:00,
2013-09-01 22:42:00,61.8,56.9,29.85,NNW,331,0.0,0.0,84,0.00,,,0.00,0,Wunderground v.1.15,2013-09-02 05:42:00,
2013-09-01 22:47:00,61.4,56.8,29.85,NNW,331,0.0,0.0,85,0.00,,,0.00,0,Wunderground v.1.15,2013-09-02 05:47:00,
2013-09-01 22:52:00,60.9,56.0,29.85,NNW,331,0.0,0.0,84,0.00,,,0.00,0,Wunderground v.1.15,2013-09-02 05:52:00,
2013-09-01 22:57:00,59.8,55.9,29.85,NNW,331,0.0,2.0,87,0.00,,,0.00,0,Wunderground v.1.15,2013-09-02 05:57:00,
2013-09-01 23:02:00,59.8,56.2,29.85,NNW,331,1.0,2.0,88,0.00,,,0.00,0,Wunderground v.1.15,2013-09-02 06:02:00,
2013-09-01 23:07:00,59.9,56.3,29.85,NNW,331,0.0,2.0,88,0.00,,,0.00,0,Wunderground v.1.15,2013-09-02 06:07:00,
2013-09-01 23:12:00,58.7,55.5,29.86,NNW,331,0.0,1.0,89,0.00,,,0.00,0,Wunderground v.1.15,2013-09-02 06:12:00,
2013-09-01 23:17:00,58.6,55.4,29.85,NNW,331,1.0,2.0,89,0.00,,,0.00,0,Wunderground v.1.15,2013-09-02 06:17:00,
2013-09-01 23:22:00,58.1,55.2,29.85,NNW,331,1.0,4.0,90,0.00,,,0.00,0,Wunderground v.1.15,2013-09-02 06:22:00,
2013-09-01 23:27:00,57.9,55.3,29.85,NNW,331,0.0,4.0,91,0.00,,,0.00,0,Wunderground v.1.15,2013-09-02 06:27:00,
2013-09-01 23:32:00,58.0,55.4,29.85,NNW,331,0.0,1.0,91,0.00,,,0.00,0,Wunderground v.1.15,2013-09-02 06:32:00,
2013-09-01 23:37:00,58.3,55.7,29.84,NNW,331,1.0,1.0,91,0.00,,,0.00,0,Wunderground v.1.15,2013-09-02 06:37:00,
2013-09-01 23:42:00,58.4,55.8,29.84,NNW,331,0.0,0.0,91,0.00,,,0.00,0,Wunderground v.1.15,2013-09-02 06:42:00,
2013-09-01 23:47:00,58.3,55.7,29.84,NNW,331,0.0,1.0,91,0.00,,,0.00,0,Wunderground v.1.15,2013-09-02 06:47:00,
2013-09-01 23:55:00,58.7,56.1,29.84,NNW,331,0.0,0.0,91,0.00,,,0.00,0,Wunderground v.1.15,2013-09-02 06:55:00,